This is the latest recevied weather packets stored in our database for station/object KD7CIH. If no packets are shown the sender has not sent any weather packets the latest 1 day(s).
| Time | Temp. | Humidity | Pressure | Rain* | Wind** | Luminosity | Snow |
|---|---|---|---|---|---|---|---|
| 1836274589 | 20° C | 29% | 1015.4 hPa | 0 mm | 2.68 m/s, 269° | - | - |
| 1836274438 | 20° C | 29% | 1015.3 hPa | 0 mm | 2.68 m/s, 258° | - | - |
| 1836274287 | 20° C | 29% | 1015.4 hPa | 0 mm | 3.13 m/s, 229° | - | - |
| 1836274141 | 19.44° C | 29% | 1015.3 hPa | 0 mm | 2.68 m/s, 259° | - | - |
| 1836273988 | 20° C | 28% | 1015.4 hPa | 0 mm | 3.58 m/s, 263° | - | - |
| 1778052873 | -1.67° C | 77% | 1011.4 hPa | 0 mm | 2.24 m/s, 98° | - | - |
| 1778052573 | -1.67° C | 77% | 1011.4 hPa | 0 mm | 3.13 m/s, 95° | - | - |
| 1778052274 | -1.67° C | 77% | 1011.3 hPa | 0 mm | 3.13 m/s, 76° | - | - |
| 1778051976 | -1.67° C | 77% | 1011.3 hPa | 0 mm | 2.68 m/s, 57° | - | - |
| 1778051674 | -1.67° C | 78% | 1011.4 hPa | 0 mm | 3.13 m/s, 51° | - | - |
| 1778051374 | -1.67° C | 78% | 1011.4 hPa | 0 mm | 2.68 m/s, 34° | - | - |
| 1778051202 | -1.67° C | 79% | 1011.3 hPa | 0 mm | 2.68 m/s, 63° | - | - |
| 1778050901 | -1.67° C | 79% | 1011.2 hPa | 0 mm | 2.68 m/s, 65° | - | - |
| 1778050473 | -1.67° C | 80% | 1011.1 hPa | 0 mm | 3.13 m/s, 37° | - | - |
| 1778050175 | -1.67° C | 81% | 1011.2 hPa | 0 mm | 3.13 m/s, 59° | - | - |
| 1778050000 | -1.67° C | 82% | 1011.1 hPa | 0 mm | 2.24 m/s, 65° | - | - |
| 1778049574 | -2.22° C | 85% | 1011.1 hPa | 0 mm | 2.68 m/s, 53° | - | - |
| 1778049275 | -2.22° C | 86% | 1011.2 hPa | 0 mm | 3.13 m/s, 63° | - | - |
| 1778048973 | -2.22° C | 87% | 1011.3 hPa | 0 mm | 3.58 m/s, 56° | - | - |
| 1778048673 | -2.22° C | 88% | 1011.3 hPa | 0 mm | 4.02 m/s, 77° | - | - |
| 1778048374 | -2.22° C | 87% | 1011.3 hPa | 0 mm | 4.02 m/s, 71° | - | - |
| 1778048075 | -2.22° C | 87% | 1011.2 hPa | 0 mm | 4.02 m/s, 63° | - | - |
| 1778047774 | -2.22° C | 86% | 1011 hPa | 0 mm | 4.02 m/s, 59° | - | - |
| 1778047473 | -2.22° C | 86% | 1010.8 hPa | 0 mm | 4.02 m/s, 51° | - | - |
| 1778047173 | -2.22° C | 86% | 1011.3 hPa | 0 mm | 4.92 m/s, 68° | - | - |
* Rain latest hour (hover to see other rain measurements)
** Current wind speed in m/s (hover to see current wind gust speed)